sensor_id;sensor_type;location;lat;lon;timestamp;temperature;humidity
67502;SHT30;54349;52.528;19.760;2022-09-29T00:01:18;23.13;52.05
67502;SHT30;54349;52.528;19.760;2022-09-29T00:03:47;23.11;52.05
67502;SHT30;54349;52.528;19.760;2022-09-29T00:06:16;23.10;52.02
67502;SHT30;54349;52.528;19.760;2022-09-29T00:08:46;23.08;52.03
67502;SHT30;54349;52.528;19.760;2022-09-29T00:11:15;23.06;51.98
67502;SHT30;54349;52.528;19.760;2022-09-29T00:13:46;23.04;51.93
67502;SHT30;54349;52.528;19.760;2022-09-29T00:16:14;23.03;51.93
67502;SHT30;54349;52.528;19.760;2022-09-29T00:18:43;23.01;51.92
67502;SHT30;54349;52.528;19.760;2022-09-29T00:21:12;22.99;51.89
67502;SHT30;54349;52.528;19.760;2022-09-29T00:23:43;22.97;51.88
67502;SHT30;54349;52.528;19.760;2022-09-29T00:28:48;22.94;51.83
67502;SHT30;54349;52.528;19.760;2022-09-29T00:31:20;22.93;51.82
67502;SHT30;54349;52.528;19.760;2022-09-29T00:33:49;22.91;51.80
67502;SHT30;54349;52.528;19.760;2022-09-29T00:36:18;22.91;51.81
67502;SHT30;54349;52.528;19.760;2022-09-29T00:38:49;22.89;51.77
67502;SHT30;54349;52.528;19.760;2022-09-29T00:41:23;22.88;51.74
67502;SHT30;54349;52.528;19.760;2022-09-29T00:44:04;22.86;51.71
67502;SHT30;54349;52.528;19.760;2022-09-29T00:46:40;22.85;51.73
67502;SHT30;54349;52.528;19.760;2022-09-29T00:51:59;22.82;51.69
67502;SHT30;54349;52.528;19.760;2022-09-29T00:54:32;22.82;51.65
67502;SHT30;54349;52.528;19.760;2022-09-29T00:57:09;22.80;51.63
67502;SHT30;54349;52.528;19.760;2022-09-29T01:00:17;22.78;51.64
67502;SHT30;54349;52.528;19.760;2022-09-29T01:02:49;22.76;51.60
67502;SHT30;54349;52.528;19.760;2022-09-29T01:05:32;22.75;51.60
67502;SHT30;54349;52.528;19.760;2022-09-29T01:08:25;22.74;51.61
67502;SHT30;54349;52.528;19.760;2022-09-29T01:11:05;22.73;51.57
67502;SHT30;54349;52.528;19.760;2022-09-29T01:13:37;22.70;51.53
67502;SHT30;54349;52.528;19.760;2022-09-29T01:16:08;22.70;51.52
67502;SHT30;54349;52.528;19.760;2022-09-29T01:18:36;22.69;51.50
67502;SHT30;54349;52.528;19.760;2022-09-29T01:30:11;22.64;51.40
67502;SHT30;54349;52.528;19.760;2022-09-29T01:35:42;22.61;51.40
67502;SHT30;54349;52.528;19.760;2022-09-29T01:51:06;22.55;51.33
67502;SHT30;54349;52.528;19.760;2022-09-29T01:53:10;22.54;51.31
67502;SHT30;54349;52.528;19.760;2022-09-29T01:55:48;22.52;51.32
67502;SHT30;54349;52.528;19.760;2022-09-29T01:58:24;22.51;51.32
67502;SHT30;54349;52.528;19.760;2022-09-29T02:01:03;22.51;51.27
67502;SHT30;54349;52.528;19.760;2022-09-29T02:04:01;22.50;51.27
67502;SHT30;54349;52.528;19.760;2022-09-29T02:06:38;22.49;51.25
67502;SHT30;54349;52.528;19.760;2022-09-29T02:09:20;22.48;51.25
67502;SHT30;54349;52.528;19.760;2022-09-29T02:11:54;22.47;51.20
67502;SHT30;54349;52.528;19.760;2022-09-29T02:14:27;22.46;51.21
67502;SHT30;54349;52.528;19.760;2022-09-29T02:17:17;22.45;51.21
67502;SHT30;54349;52.528;19.760;2022-09-29T02:19:50;22.44;51.18
67502;SHT30;54349;52.528;19.760;2022-09-29T02:22:19;22.43;51.19
67502;SHT30;54349;52.528;19.760;2022-09-29T02:24:48;22.43;51.17
67502;SHT30;54349;52.528;19.760;2022-09-29T02:27:26;22.42;51.12
67502;SHT30;54349;52.528;19.760;2022-09-29T02:30:00;22.42;51.12
67502;SHT30;54349;52.528;19.760;2022-09-29T02:32:28;22.41;51.13
67502;SHT30;54349;52.528;19.760;2022-09-29T02:34:58;22.41;51.11
67502;SHT30;54349;52.528;19.760;2022-09-29T02:49:05;22.36;51.03
67502;SHT30;54349;52.528;19.760;2022-09-29T02:52:15;22.34;51.01
67502;SHT30;54349;52.528;19.760;2022-09-29T03:00:12;22.32;50.98
67502;SHT30;54349;52.528;19.760;2022-09-29T03:02:44;22.32;50.98
67502;SHT30;54349;52.528;19.760;2022-09-29T03:05:16;22.31;50.96
67502;SHT30;54349;52.528;19.760;2022-09-29T03:07:47;22.32;50.93
67502;SHT30;54349;52.528;19.760;2022-09-29T03:10:16;22.31;50.94
67502;SHT30;54349;52.528;19.760;2022-09-29T03:12:46;22.30;50.92
67502;SHT30;54349;52.528;19.760;2022-09-29T03:15:14;22.29;50.90
67502;SHT30;54349;52.528;19.760;2022-09-29T03:17:42;22.28;50.91
67502;SHT30;54349;52.528;19.760;2022-09-29T03:20:10;22.28;50.90
67502;SHT30;54349;52.528;19.760;2022-09-29T03:22:38;22.27;50.90
67502;SHT30;54349;52.528;19.760;2022-09-29T03:25:07;22.27;50.88
67502;SHT30;54349;52.528;19.760;2022-09-29T03:27:36;22.26;50.85
67502;SHT30;54349;52.528;19.760;2022-09-29T03:30:05;22.25;50.87
67502;SHT30;54349;52.528;19.760;2022-09-29T03:32:34;22.26;50.81
67502;SHT30;54349;52.528;19.760;2022-09-29T03:35:02;22.24;50.82
67502;SHT30;54349;52.528;19.760;2022-09-29T03:37:32;22.24;50.80
67502;SHT30;54349;52.528;19.760;2022-09-29T03:40:01;22.24;50.85
67502;SHT30;54349;52.528;19.760;2022-09-29T03:42:32;22.23;50.81
67502;SHT30;54349;52.528;19.760;2022-09-29T03:45:00;22.23;50.80
67502;SHT30;54349;52.528;19.760;2022-09-29T03:47:28;22.22;50.80
67502;SHT30;54349;52.528;19.760;2022-09-29T03:49:56;22.21;50.79
67502;SHT30;54349;52.528;19.760;2022-09-29T03:52:24;22.21;50.79
67502;SHT30;54349;52.528;19.760;2022-09-29T03:54:52;22.21;50.75
67502;SHT30;54349;52.528;19.760;2022-09-29T03:57:20;22.20;50.74
67502;SHT30;54349;52.528;19.760;2022-09-29T03:59:48;22.20;50.74
67502;SHT30;54349;52.528;19.760;2022-09-29T04:02:16;22.20;50.71
67502;SHT30;54349;52.528;19.760;2022-09-29T04:04:47;22.19;50.70
67502;SHT30;54349;52.528;19.760;2022-09-29T04:07:15;22.18;50.72
67502;SHT30;54349;52.528;19.760;2022-09-29T04:09:43;22.18;50.70
67502;SHT30;54349;52.528;19.760;2022-09-29T04:12:11;22.18;50.71
67502;SHT30;54349;52.528;19.760;2022-09-29T04:14:39;22.17;50.71
67502;SHT30;54349;52.528;19.760;2022-09-29T04:17:07;22.17;50.67
67502;SHT30;54349;52.528;19.760;2022-09-29T04:19:36;22.16;50.68
67502;SHT30;54349;52.528;19.760;2022-09-29T04:22:04;22.16;50.68
67502;SHT30;54349;52.528;19.760;2022-09-29T04:24:32;22.16;50.69
67502;SHT30;54349;52.528;19.760;2022-09-29T04:27:00;22.15;50.66
67502;SHT30;54349;52.528;19.760;2022-09-29T04:29:29;22.15;50.65
67502;SHT30;54349;52.528;19.760;2022-09-29T04:31:57;22.14;50.63
67502;SHT30;54349;52.528;19.760;2022-09-29T04:34:25;22.15;50.67
67502;SHT30;54349;52.528;19.760;2022-09-29T04:36:53;22.14;50.79
67502;SHT30;54349;52.528;19.760;2022-09-29T04:39:21;22.15;51.38
67502;SHT30;54349;52.528;19.760;2022-09-29T04:41:49;22.14;51.50
67502;SHT30;54349;52.528;19.760;2022-09-29T04:44:18;22.15;51.41
67502;SHT30;54349;52.528;19.760;2022-09-29T04:46:51;22.14;51.39
67502;SHT30;54349;52.528;19.760;2022-09-29T04:49:19;22.14;51.32
67502;SHT30;54349;52.528;19.760;2022-09-29T04:51:49;22.13;51.30
67502;SHT30;54349;52.528;19.760;2022-09-29T04:54:17;22.13;51.27
67502;SHT30;54349;52.528;19.760;2022-09-29T04:56:48;22.13;51.22
67502;SHT30;54349;52.528;19.760;2022-09-29T04:59:17;22.12;51.20
67502;SHT30;54349;52.528;19.760;2022-09-29T05:01:47;22.12;51.18
67502;SHT30;54349;52.528;19.760;2022-09-29T05:04:16;22.12;51.16
67502;SHT30;54349;52.528;19.760;2022-09-29T05:06:44;22.11;51.12
67502;SHT30;54349;52.528;19.760;2022-09-29T05:09:13;22.12;51.09
67502;SHT30;54349;52.528;19.760;2022-09-29T05:11:41;22.10;51.06
67502;SHT30;54349;52.528;19.760;2022-09-29T05:14:09;22.10;51.01
67502;SHT30;54349;52.528;19.760;2022-09-29T05:16:38;22.10;50.96
67502;SHT30;54349;52.528;19.760;2022-09-29T05:19:06;22.09;50.92
67502;SHT30;54349;52.528;19.760;2022-09-29T05:21:34;22.09;50.88
67502;SHT30;54349;52.528;19.760;2022-09-29T05:24:02;22.09;50.88
67502;SHT30;54349;52.528;19.760;2022-09-29T05:26:30;22.08;50.87
67502;SHT30;54349;52.528;19.760;2022-09-29T05:28:59;22.08;50.87
67502;SHT30;54349;52.528;19.760;2022-09-29T05:31:27;22.07;50.84
67502;SHT30;54349;52.528;19.760;2022-09-29T05:33:55;22.08;50.83
67502;SHT30;54349;52.528;19.760;2022-09-29T05:36:24;22.07;50.83
67502;SHT30;54349;52.528;19.760;2022-09-29T05:38:52;22.06;50.80
67502;SHT30;54349;52.528;19.760;2022-09-29T05:41:20;22.06;50.77
67502;SHT30;54349;52.528;19.760;2022-09-29T05:43:50;22.07;50.76
67502;SHT30;54349;52.528;19.760;2022-09-29T05:46:22;22.06;50.72
67502;SHT30;54349;52.528;19.760;2022-09-29T05:48:50;22.06;50.71
67502;SHT30;54349;52.528;19.760;2022-09-29T05:51:20;22.05;50.70
67502;SHT30;54349;52.528;19.760;2022-09-29T05:53:50;22.04;50.68
67502;SHT30;54349;52.528;19.760;2022-09-29T05:56:19;22.05;50.68
67502;SHT30;54349;52.528;19.760;2022-09-29T05:58:51;22.04;50.63
67502;SHT30;54349;52.528;19.760;2022-09-29T06:01:22;22.04;50.62
67502;SHT30;54349;52.528;19.760;2022-09-29T06:03:53;22.04;50.61
67502;SHT30;54349;52.528;19.760;2022-09-29T06:06:23;22.04;50.60
67502;SHT30;54349;52.528;19.760;2022-09-29T06:08:55;22.03;50.58
67502;SHT30;54349;52.528;19.760;2022-09-29T06:11:26;22.03;50.56
67502;SHT30;54349;52.528;19.760;2022-09-29T06:13:56;22.02;50.55
67502;SHT30;54349;52.528;19.760;2022-09-29T06:16:26;22.02;50.54
67502;SHT30;54349;52.528;19.760;2022-09-29T06:18:57;22.01;50.51
67502;SHT30;54349;52.528;19.760;2022-09-29T06:21:29;22.02;50.51
67502;SHT30;54349;52.528;19.760;2022-09-29T06:24:01;22.02;50.50
67502;SHT30;54349;52.528;19.760;2022-09-29T06:26:30;22.00;50.48
67502;SHT30;54349;52.528;19.760;2022-09-29T06:28:58;22.01;50.46
67502;SHT30;54349;52.528;19.760;2022-09-29T06:31:27;22.00;50.45
67502;SHT30;54349;52.528;19.760;2022-09-29T06:33:58;22.00;50.41
67502;SHT30;54349;52.528;19.760;2022-09-29T06:36:29;22.00;50.45
67502;SHT30;54349;52.528;19.760;2022-09-29T06:39:21;21.99;50.42
67502;SHT30;54349;52.528;19.760;2022-09-29T06:41:49;21.99;50.41
67502;SHT30;54349;52.528;19.760;2022-09-29T06:44:24;21.99;50.41
67502;SHT30;54349;52.528;19.760;2022-09-29T06:46:56;21.98;50.41
67502;SHT30;54349;52.528;19.760;2022-09-29T06:49:25;21.99;50.38
67502;SHT30;54349;52.528;19.760;2022-09-29T06:51:53;21.99;50.36
67502;SHT30;54349;52.528;19.760;2022-09-29T06:54:22;21.98;50.38
67502;SHT30;54349;52.528;19.760;2022-09-29T06:56:53;21.98;50.35
67502;SHT30;54349;52.528;19.760;2022-09-29T06:59:22;21.98;50.32
67502;SHT30;54349;52.528;19.760;2022-09-29T07:01:50;21.98;50.30
67502;SHT30;54349;52.528;19.760;2022-09-29T07:04:20;21.98;50.32
67502;SHT30;54349;52.528;19.760;2022-09-29T07:06:49;21.98;50.30
67502;SHT30;54349;52.528;19.760;2022-09-29T07:09:18;21.97;50.28
67502;SHT30;54349;52.528;19.760;2022-09-29T07:11:48;21.97;50.24
67502;SHT30;54349;52.528;19.760;2022-09-29T07:14:19;21.97;50.23
67502;SHT30;54349;52.528;19.760;2022-09-29T07:16:50;21.98;50.22
67502;SHT30;54349;52.528;19.760;2022-09-29T07:19:20;21.97;50.24
67502;SHT30;54349;52.528;19.760;2022-09-29T07:21:49;21.97;50.22
67502;SHT30;54349;52.528;19.760;2022-09-29T07:24:18;21.98;50.22
67502;SHT30;54349;52.528;19.760;2022-09-29T07:26:46;21.98;50.19
67502;SHT30;54349;52.528;19.760;2022-09-29T07:29:14;21.98;50.19
67502;SHT30;54349;52.528;19.760;2022-09-29T07:31:43;21.97;50.19
67502;SHT30;54349;52.528;19.760;2022-09-29T07:34:21;21.97;50.17
67502;SHT30;54349;52.528;19.760;2022-09-29T07:36:49;21.97;50.14
67502;SHT30;54349;52.528;19.760;2022-09-29T07:39:18;21.98;50.12
67502;SHT30;54349;52.528;19.760;2022-09-29T07:41:48;21.98;50.11
67502;SHT30;54349;52.528;19.760;2022-09-29T07:44:16;21.98;50.11
67502;SHT30;54349;52.528;19.760;2022-09-29T07:46:47;21.97;50.09
67502;SHT30;54349;52.528;19.760;2022-09-29T07:49:16;21.97;50.07
67502;SHT30;54349;52.528;19.760;2022-09-29T07:51:45;21.98;50.08
67502;SHT30;54349;52.528;19.760;2022-09-29T07:54:15;21.98;50.06
67502;SHT30;54349;52.528;19.760;2022-09-29T07:56:43;21.98;50.06
67502;SHT30;54349;52.528;19.760;2022-09-29T07:59:11;21.98;50.03
67502;SHT30;54349;52.528;19.760;2022-09-29T08:01:40;21.98;50.02
67502;SHT30;54349;52.528;19.760;2022-09-29T08:04:07;21.98;50.01
67502;SHT30;54349;52.528;19.760;2022-09-29T08:06:35;21.99;49.99
67502;SHT30;54349;52.528;19.760;2022-09-29T08:09:03;21.99;50.00
67502;SHT30;54349;52.528;19.760;2022-09-29T08:11:35;21.99;49.94
67502;SHT30;54349;52.528;19.760;2022-09-29T08:14:06;21.99;49.97
67502;SHT30;54349;52.528;19.760;2022-09-29T08:16:36;21.99;49.96
67502;SHT30;54349;52.528;19.760;2022-09-29T08:19:05;22.00;49.94
67502;SHT30;54349;52.528;19.760;2022-09-29T08:21:34;21.99;49.91
67502;SHT30;54349;52.528;19.760;2022-09-29T08:24:04;21.99;49.92
67502;SHT30;54349;52.528;19.760;2022-09-29T08:26:34;22.00;49.91
67502;SHT30;54349;52.528;19.760;2022-09-29T08:29:11;22.00;49.87
67502;SHT30;54349;52.528;19.760;2022-09-29T08:31:44;22.00;49.85
67502;SHT30;54349;52.528;19.760;2022-09-29T08:34:14;21.99;49.86
67502;SHT30;54349;52.528;19.760;2022-09-29T08:36:43;22.00;49.88
67502;SHT30;54349;52.528;19.760;2022-09-29T08:39:11;22.00;49.81
67502;SHT30;54349;52.528;19.760;2022-09-29T08:41:45;22.00;49.83
67502;SHT30;54349;52.528;19.760;2022-09-29T08:44:46;22.00;49.79
67502;SHT30;54349;52.528;19.760;2022-09-29T08:47:41;22.00;49.82
67502;SHT30;54349;52.528;19.760;2022-09-29T08:53:08;22.01;49.78
67502;SHT30;54349;52.528;19.760;2022-09-29T08:55:56;22.00;49.79
67502;SHT30;54349;52.528;19.760;2022-09-29T08:58:30;22.01;49.76
67502;SHT30;54349;52.528;19.760;2022-09-29T09:03:50;22.00;49.73
67502;SHT30;54349;52.528;19.760;2022-09-29T09:13:10;22.01;49.70
67502;SHT30;54349;52.528;19.760;2022-09-29T09:16:13;22.01;49.66
67502;SHT30;54349;52.528;19.760;2022-09-29T09:19:23;22.00;49.65
67502;SHT30;54349;52.528;19.760;2022-09-29T09:22:20;22.01;49.62
67502;SHT30;54349;52.528;19.760;2022-09-29T09:25:04;22.01;49.62
67502;SHT30;54349;52.528;19.760;2022-09-29T09:30:36;22.01;49.60
67502;SHT30;54349;52.528;19.760;2022-09-29T09:36:35;22.00;49.60
67502;SHT30;54349;52.528;19.760;2022-09-29T09:39:43;22.01;49.59
67502;SHT30;54349;52.528;19.760;2022-09-29T09:42:52;22.02;49.52
67502;SHT30;54349;52.528;19.760;2022-09-29T09:45:32;22.02;49.52
67502;SHT30;54349;52.528;19.760;2022-09-29T09:51:12;22.04;49.51
67502;SHT30;54349;52.528;19.760;2022-09-29T09:53:47;22.04;49.51
67502;SHT30;54349;52.528;19.760;2022-09-29T09:56:23;22.04;49.49
67502;SHT30;54349;52.528;19.760;2022-09-29T09:59:11;22.04;49.47
67502;SHT30;54349;52.528;19.760;2022-09-29T10:01:48;22.05;49.42
67502;SHT30;54349;52.528;19.760;2022-09-29T10:04:16;22.05;49.45
67502;SHT30;54349;52.528;19.760;2022-09-29T10:06:44;22.06;49.42
67502;SHT30;54349;52.528;19.760;2022-09-29T10:09:12;22.07;49.42
67502;SHT30;54349;52.528;19.760;2022-09-29T10:11:43;22.06;49.40
67502;SHT30;54349;52.528;19.760;2022-09-29T10:14:20;22.07;49.38
67502;SHT30;54349;52.528;19.760;2022-09-29T10:20:10;22.07;49.32
67502;SHT30;54349;52.528;19.760;2022-09-29T10:22:33;22.08;49.30
67502;SHT30;54349;52.528;19.760;2022-09-29T10:27:49;22.09;49.28
67502;SHT30;54349;52.528;19.760;2022-09-29T10:30:31;22.09;49.28
67502;SHT30;54349;52.528;19.760;2022-09-29T10:33:02;22.10;49.25
67502;SHT30;54349;52.528;19.760;2022-09-29T10:35:38;22.11;49.22
67502;SHT30;54349;52.528;19.760;2022-09-29T10:38:23;22.10;49.22
67502;SHT30;54349;52.528;19.760;2022-09-29T10:40:54;22.11;49.18
67502;SHT30;54349;52.528;19.760;2022-09-29T10:43:40;22.12;49.16
67502;SHT30;54349;52.528;19.760;2022-09-29T10:49:23;22.13;49.10
67502;SHT30;54349;52.528;19.760;2022-09-29T10:54:28;22.15;49.13
67502;SHT30;54349;52.528;19.760;2022-09-29T10:57:10;22.15;49.07
67502;SHT30;54349;52.528;19.760;2022-09-29T10:59:46;22.16;49.06
67502;SHT30;54349;52.528;19.760;2022-09-29T11:02:21;22.16;49.06
67502;SHT30;54349;52.528;19.760;2022-09-29T11:05:04;22.16;49.02
67502;SHT30;54349;52.528;19.760;2022-09-29T11:07:50;22.17;49.02
67502;SHT30;54349;52.528;19.760;2022-09-29T11:10:27;22.17;49.02
67502;SHT30;54349;52.528;19.760;2022-09-29T11:13:43;22.17;49.01
67502;SHT30;54349;52.528;19.760;2022-09-29T11:16:01;22.17;49.00
67502;SHT30;54349;52.528;19.760;2022-09-29T11:18:34;22.18;48.98
67502;SHT30;54349;52.528;19.760;2022-09-29T11:21:22;22.19;48.98
67502;SHT30;54349;52.528;19.760;2022-09-29T11:30:22;22.20;48.88
67502;SHT30;54349;52.528;19.760;2022-09-29T11:42:23;22.22;48.82
67502;SHT30;54349;52.528;19.760;2022-09-29T11:45:36;22.22;48.78
67502;SHT30;54349;52.528;19.760;2022-09-29T11:59:49;22.26;48.72
67502;SHT30;54349;52.528;19.760;2022-09-29T12:17:40;22.30;48.56
67502;SHT30;54349;52.528;19.760;2022-09-29T12:20:36;22.32;48.56
67502;SHT30;54349;52.528;19.760;2022-09-29T12:23:10;22.32;48.54
67502;SHT30;54349;52.528;19.760;2022-09-29T12:26:27;22.32;48.52
67502;SHT30;54349;52.528;19.760;2022-09-29T12:28:51;22.33;48.45
67502;SHT30;54349;52.528;19.760;2022-09-29T12:31:27;22.35;48.48
67502;SHT30;54349;52.528;19.760;2022-09-29T12:34:07;22.35;48.48
67502;SHT30;54349;52.528;19.760;2022-09-29T12:36:41;22.36;48.47
67502;SHT30;54349;52.528;19.760;2022-09-29T12:45:15;22.39;48.39
67502;SHT30;54349;52.528;19.760;2022-09-29T12:48:05;22.40;48.38
67502;SHT30;54349;52.528;19.760;2022-09-29T12:57:04;22.45;48.31
67502;SHT30;54349;52.528;19.760;2022-09-29T13:05:28;22.48;48.23
67502;SHT30;54349;52.528;19.760;2022-09-29T13:17:08;22.51;48.16
67502;SHT30;54349;52.528;19.760;2022-09-29T13:28:52;22.53;48.18
67502;SHT30;54349;52.528;19.760;2022-09-29T13:31:25;22.54;48.20
67502;SHT30;54349;52.528;19.760;2022-09-29T13:34:00;22.54;48.18
67502;SHT30;54349;52.528;19.760;2022-09-29T13:36:31;22.54;48.21
67502;SHT30;54349;52.528;19.760;2022-09-29T13:39:18;22.55;48.18
67502;SHT30;54349;52.528;19.760;2022-09-29T13:41:54;22.54;48.19
67502;SHT30;54349;52.528;19.760;2022-09-29T13:44:26;22.55;48.19
67502;SHT30;54349;52.528;19.760;2022-09-29T13:46:55;22.56;48.15
67502;SHT30;54349;52.528;19.760;2022-09-29T13:50:38;22.56;48.12
67502;SHT30;54349;52.528;19.760;2022-09-29T13:58:30;22.59;48.34
67502;SHT30;54349;52.528;19.760;2022-09-29T14:01:10;22.60;48.36
67502;SHT30;54349;52.528;19.760;2022-09-29T14:03:48;22.59;48.32
67502;SHT30;54349;52.528;19.760;2022-09-29T14:06:18;22.60;48.31
67502;SHT30;54349;52.528;19.760;2022-09-29T14:09:14;22.60;48.23
67502;SHT30;54349;52.528;19.760;2022-09-29T14:11:50;22.61;48.22
67502;SHT30;54349;52.528;19.760;2022-09-29T14:14:26;22.61;48.21
67502;SHT30;54349;52.528;19.760;2022-09-29T14:17:13;22.61;48.16
67502;SHT30;54349;52.528;19.760;2022-09-29T14:20:18;22.61;48.12
67502;SHT30;54349;52.528;19.760;2022-09-29T14:28:08;22.60;48.09
67502;SHT30;54349;52.528;19.760;2022-09-29T14:30:49;22.61;48.07
67502;SHT30;54349;52.528;19.760;2022-09-29T14:33:23;22.60;48.06
67502;SHT30;54349;52.528;19.760;2022-09-29T14:36:06;22.61;48.01
67502;SHT30;54349;52.528;19.760;2022-09-29T14:38:43;22.61;48.03
67502;SHT30;54349;52.528;19.760;2022-09-29T14:41:40;22.60;48.00
67502;SHT30;54349;52.528;19.760;2022-09-29T14:44:14;22.61;48.00
67502;SHT30;54349;52.528;19.760;2022-09-29T14:50:16;22.60;48.00
67502;SHT30;54349;52.528;19.760;2022-09-29T15:02:33;22.61;48.00
67502;SHT30;54349;52.528;19.760;2022-09-29T15:05:12;22.61;48.05
67502;SHT30;54349;52.528;19.760;2022-09-29T15:07:58;22.62;48.08
67502;SHT30;54349;52.528;19.760;2022-09-29T15:10:29;22.62;48.05
67502;SHT30;54349;52.528;19.760;2022-09-29T15:13:13;22.62;48.02
67502;SHT30;54349;52.528;19.760;2022-09-29T15:16:09;22.63;48.01
67502;SHT30;54349;52.528;19.760;2022-09-29T15:19:07;22.64;47.99
67502;SHT30;54349;52.528;19.760;2022-09-29T15:22:20;22.63;47.98
67502;SHT30;54349;52.528;19.760;2022-09-29T15:28:17;22.65;47.92
67502;SHT30;54349;52.528;19.760;2022-09-29T15:31:10;22.64;47.92
67502;SHT30;54349;52.528;19.760;2022-09-29T15:33:55;22.64;47.90
67502;SHT30;54349;52.528;19.760;2022-09-29T15:36:24;22.65;47.91
67502;SHT30;54349;52.528;19.760;2022-09-29T15:39:08;22.66;47.91
67502;SHT30;54349;52.528;19.760;2022-09-29T15:42:21;22.66;47.89
67502;SHT30;54349;52.528;19.760;2022-09-29T15:45:00;22.66;47.87
67502;SHT30;54349;52.528;19.760;2022-09-29T15:47:37;22.67;47.87
67502;SHT30;54349;52.528;19.760;2022-09-29T15:50:18;22.66;47.87
67502;SHT30;54349;52.528;19.760;2022-09-29T15:52:58;22.65;47.82
67502;SHT30;54349;52.528;19.760;2022-09-29T15:55:30;22.65;47.83
67502;SHT30;54349;52.528;19.760;2022-09-29T15:57:59;22.66;47.83
67502;SHT30;54349;52.528;19.760;2022-09-29T16:03:05;22.66;47.81
67502;SHT30;54349;52.528;19.760;2022-09-29T16:06:12;22.65;47.80
67502;SHT30;54349;52.528;19.760;2022-09-29T16:08:46;22.65;47.81
67502;SHT30;54349;52.528;19.760;2022-09-29T16:14:06;22.64;47.79
67502;SHT30;54349;52.528;19.760;2022-09-29T16:16:43;22.65;47.79
67502;SHT30;54349;52.528;19.760;2022-09-29T16:19:23;22.64;47.76
67502;SHT30;54349;52.528;19.760;2022-09-29T16:21:59;22.64;47.77
67502;SHT30;54349;52.528;19.760;2022-09-29T16:24:33;22.64;47.76
67502;SHT30;54349;52.528;19.760;2022-09-29T16:27:28;22.63;47.75
67502;SHT30;54349;52.528;19.760;2022-09-29T16:30:20;22.62;47.71
67502;SHT30;54349;52.528;19.760;2022-09-29T16:33:12;22.62;47.73
67502;SHT30;54349;52.528;19.760;2022-09-29T16:46:43;22.57;47.71
67502;SHT30;54349;52.528;19.760;2022-09-29T16:49:46;22.56;47.72
67502;SHT30;54349;52.528;19.760;2022-09-29T16:52:42;22.56;47.72
67502;SHT30;54349;52.528;19.760;2022-09-29T16:57:55;22.53;48.00
67502;SHT30;54349;52.528;19.760;2022-09-29T17:00:27;22.53;48.68
67502;SHT30;54349;52.528;19.760;2022-09-29T17:02:57;22.53;48.87
67502;SHT30;54349;52.528;19.760;2022-09-29T17:05:25;22.53;48.88
67502;SHT30;54349;52.528;19.760;2022-09-29T17:08:01;22.51;48.82
67502;SHT30;54349;52.528;19.760;2022-09-29T17:10:31;22.51;48.80
67502;SHT30;54349;52.528;19.760;2022-09-29T17:13:00;22.52;48.77
67502;SHT30;54349;52.528;19.760;2022-09-29T17:15:29;22.52;48.70
67502;SHT30;54349;52.528;19.760;2022-09-29T17:17:57;22.51;48.67
67502;SHT30;54349;52.528;19.760;2022-09-29T17:20:26;22.50;48.64
67502;SHT30;54349;52.528;19.760;2022-09-29T17:22:57;22.52;48.60
67502;SHT30;54349;52.528;19.760;2022-09-29T17:25:26;22.50;48.59
67502;SHT30;54349;52.528;19.760;2022-09-29T17:27:55;22.51;48.58
67502;SHT30;54349;52.528;19.760;2022-09-29T17:30:44;22.51;48.54
67502;SHT30;54349;52.528;19.760;2022-09-29T17:33:14;22.49;48.61
67502;SHT30;54349;52.528;19.760;2022-09-29T17:35:45;22.50;48.83
67502;SHT30;54349;52.528;19.760;2022-09-29T17:38:22;22.49;48.95
67502;SHT30;54349;52.528;19.760;2022-09-29T17:41:04;22.50;49.05
67502;SHT30;54349;52.528;19.760;2022-09-29T17:43:33;22.50;49.16
67502;SHT30;54349;52.528;19.760;2022-09-29T17:46:01;22.50;49.30
67502;SHT30;54349;52.528;19.760;2022-09-29T17:48:29;22.50;49.51
67502;SHT30;54349;52.528;19.760;2022-09-29T17:50:59;22.50;49.65
67502;SHT30;54349;52.528;19.760;2022-09-29T17:53:27;22.50;49.82
67502;SHT30;54349;52.528;19.760;2022-09-29T17:55:55;22.50;49.97
67502;SHT30;54349;52.528;19.760;2022-09-29T17:58:24;22.51;50.10
67502;SHT30;54349;52.528;19.760;2022-09-29T18:00:54;22.50;50.50
67502;SHT30;54349;52.528;19.760;2022-09-29T18:03:26;22.50;50.99
67502;SHT30;54349;52.528;19.760;2022-09-29T18:05:55;22.52;51.49
67502;SHT30;54349;52.528;19.760;2022-09-29T18:08:26;22.53;51.78
67502;SHT30;54349;52.528;19.760;2022-09-29T18:10:57;22.54;52.15
67502;SHT30;54349;52.528;19.760;2022-09-29T18:13:29;22.56;52.54
67502;SHT30;54349;52.528;19.760;2022-09-29T18:15:58;22.58;52.89
67502;SHT30;54349;52.528;19.760;2022-09-29T18:18:31;22.60;53.13
67502;SHT30;54349;52.528;19.760;2022-09-29T18:21:01;22.62;53.62
67502;SHT30;54349;52.528;19.760;2022-09-29T18:23:33;22.63;53.95
67502;SHT30;54349;52.528;19.760;2022-09-29T18:26:02;22.65;54.14
67502;SHT30;54349;52.528;19.760;2022-09-29T18:28:33;22.66;54.10
67502;SHT30;54349;52.528;19.760;2022-09-29T18:31:19;22.66;54.03
67502;SHT30;54349;52.528;19.760;2022-09-29T18:33:55;22.66;53.99
67502;SHT30;54349;52.528;19.760;2022-09-29T18:36:23;22.67;54.00
67502;SHT30;54349;52.528;19.760;2022-09-29T18:38:52;22.67;54.08
67502;SHT30;54349;52.528;19.760;2022-09-29T18:41:20;22.69;54.02
67502;SHT30;54349;52.528;19.760;2022-09-29T18:43:49;22.69;54.12
67502;SHT30;54349;52.528;19.760;2022-09-29T18:46:22;22.69;54.15
67502;SHT30;54349;52.528;19.760;2022-09-29T18:48:51;22.70;54.37
67502;SHT30;54349;52.528;19.760;2022-09-29T18:51:19;22.70;54.56
67502;SHT30;54349;52.528;19.760;2022-09-29T18:53:48;22.70;54.59
67502;SHT30;54349;52.528;19.760;2022-09-29T18:56:17;22.70;54.64
67502;SHT30;54349;52.528;19.760;2022-09-29T18:58:45;22.69;54.64
67502;SHT30;54349;52.528;19.760;2022-09-29T19:01:13;22.69;54.60
67502;SHT30;54349;52.528;19.760;2022-09-29T19:03:50;22.70;54.54
67502;SHT30;54349;52.528;19.760;2022-09-29T19:06:18;22.69;54.64
67502;SHT30;54349;52.528;19.760;2022-09-29T19:08:48;22.69;54.54
67502;SHT30;54349;52.528;19.760;2022-09-29T19:11:23;22.69;54.56
67502;SHT30;54349;52.528;19.760;2022-09-29T19:13:54;22.69;54.55
67502;SHT30;54349;52.528;19.760;2022-09-29T19:16:23;22.69;54.48
67502;SHT30;54349;52.528;19.760;2022-09-29T19:18:55;22.69;54.54
67502;SHT30;54349;52.528;19.760;2022-09-29T19:21:23;22.69;54.69
67502;SHT30;54349;52.528;19.760;2022-09-29T19:23:51;22.70;54.74
67502;SHT30;54349;52.528;19.760;2022-09-29T19:26:20;22.70;54.75